createdAt,value
2022-10-31T00:01:29.470Z,54.28
2022-10-31T00:04:01.612Z,52.60
2022-10-31T00:06:33.841Z,55.08
2022-10-31T00:09:06.184Z,50.55
2022-10-31T00:11:38.261Z,51.00
2022-10-31T00:14:10.411Z,55.78
2022-10-31T00:16:42.800Z,59.30
2022-10-31T00:19:14.718Z,63.67
2022-10-31T00:21:46.649Z,56.47
2022-10-31T00:24:18.559Z,62.70
2022-10-31T00:26:50.495Z,62.60
2022-10-31T00:29:22.410Z,51.80
2022-10-31T00:31:54.593Z,65.63
2022-10-31T00:34:26.505Z,56.50
2022-10-31T00:36:58.785Z,58.75
2022-10-31T00:39:30.952Z,66.72
2022-10-31T00:42:02.980Z,63.78
2022-10-31T00:44:34.898Z,60.05
2022-10-31T00:47:06.872Z,65.43
2022-10-31T00:49:38.973Z,65.78
2022-10-31T00:52:10.985Z,58.17
2022-10-31T00:54:42.988Z,58.78
2022-10-31T00:57:14.910Z,61.50
2022-10-31T00:59:47.202Z,62.47
2022-10-31T01:02:19.221Z,60.53
2022-10-31T01:04:51.246Z,68.18
2022-10-31T01:07:23.231Z,63.05
2022-10-31T01:09:55.151Z,62.40
2022-10-31T01:12:27.086Z,67.90
2022-10-31T01:14:59.050Z,55.65
2022-10-31T01:17:31.000Z,68.45
2022-10-31T01:20:04.276Z,59.53
2022-10-31T01:22:36.228Z,69.45
2022-10-31T01:25:09.770Z,70.45
2022-10-31T01:27:41.784Z,73.22
2022-10-31T01:30:13.862Z,67.38
2022-10-31T01:32:45.778Z,73.70
2022-10-31T01:35:17.716Z,52.80
2022-10-31T01:37:49.658Z,69.25
2022-10-31T01:40:21.609Z,56.95
2022-10-31T01:42:53.677Z,64.97
2022-10-31T01:45:25.817Z,71.38
2022-10-31T01:47:58.228Z,62.90
2022-10-31T01:50:37.172Z,63.30
2022-10-31T01:53:10.808Z,70.25
2022-10-31T01:55:45.757Z,66.35
2022-10-31T01:58:26.876Z,61.05
2022-10-31T02:01:04.955Z,59.05
2022-10-31T02:03:39.863Z,73.03
2022-10-31T02:06:23.184Z,74.53
2022-10-31T02:08:57.112Z,66.43
2022-10-31T02:11:30.726Z,64.60
2022-10-31T02:14:03.929Z,74.78
2022-10-31T02:16:35.877Z,67.90
2022-10-31T02:19:12.758Z,61.80
2022-10-31T02:22:14.656Z,64.88
2022-10-31T02:25:18.689Z,63.40
2022-10-31T02:28:35.008Z,61.92
2022-10-31T02:31:42.913Z,63.80
2022-10-31T02:34:25.410Z,58.72
2022-10-31T02:37:09.109Z,66.53
2022-10-31T02:40:12.150Z,57.45
2022-10-31T02:42:49.778Z,70.28
2022-10-31T02:45:34.971Z,67.78
2022-10-31T02:48:20.802Z,69.70
2022-10-31T02:51:01.029Z,67.55
2022-10-31T02:53:36.411Z,77.07
2022-10-31T02:56:20.979Z,80.85
2022-10-31T02:58:58.385Z,77.78
2022-10-31T03:01:38.844Z,69.20
2022-10-31T03:04:41.970Z,66.22
2022-10-31T03:07:47.737Z,75.05
2022-10-31T03:10:43.486Z,74.15
2022-10-31T03:13:53.358Z,76.43
2022-10-31T03:16:51.340Z,67.65
2022-10-31T03:19:41.946Z,74.50
2022-10-31T03:22:24.992Z,71.40
2022-10-31T03:24:58.870Z,64.95
2022-10-31T03:27:35.190Z,67.28
2022-10-31T03:30:08.963Z,62.75
2022-10-31T03:32:52.390Z,71.43
2022-10-31T03:35:26.999Z,67.53
2022-10-31T03:38:05.480Z,76.55
2022-10-31T03:40:42.509Z,66.93
2022-10-31T03:46:13.102Z,68.47
2022-10-31T03:48:45.108Z,73.75
2022-10-31T03:51:26.191Z,74.35
2022-10-31T03:54:28.261Z,64.32
2022-10-31T03:57:38.380Z,76.18
2022-10-31T04:00:16.245Z,70.85
2022-10-31T04:03:13.870Z,75.50
2022-10-31T04:05:48.582Z,73.78
2022-10-31T04:08:25.713Z,79.18
2022-10-31T04:11:00.492Z,67.90
2022-10-31T04:13:36.928Z,68.35
2022-10-31T04:16:12.678Z,69.35
2022-10-31T04:18:48.103Z,75.50
2022-10-31T04:21:20.153Z,73.00
2022-10-31T04:23:52.088Z,87.28
2022-10-31T04:26:24.178Z,88.05
2022-10-31T04:28:56.110Z,73.10
2022-10-31T04:31:28.350Z,73.88
2022-10-31T04:34:00.482Z,76.85
2022-10-31T04:36:32.386Z,70.70
2022-10-31T04:39:04.473Z,73.15
2022-10-31T04:41:36.405Z,66.82
2022-10-31T04:44:08.341Z,77.00
2022-10-31T04:46:40.230Z,73.45
2022-10-31T04:49:12.277Z,67.20
2022-10-31T04:51:44.150Z,62.53
2022-10-31T04:54:16.139Z,65.18
2022-10-31T04:56:48.037Z,63.22
2022-10-31T04:59:20.025Z,65.95
2022-10-31T05:01:52.067Z,63.60
2022-10-31T05:04:24.226Z,65.93
2022-10-31T05:06:56.101Z,59.92
2022-10-31T05:09:28.065Z,57.17
2022-10-31T05:11:59.996Z,53.28
2022-10-31T05:14:32.011Z,48.42
2022-10-31T05:17:03.966Z,56.08
2022-10-31T05:19:35.917Z,53.20
2022-10-31T05:22:07.851Z,54.38
2022-10-31T05:24:40.023Z,56.22
2022-10-31T05:27:11.914Z,52.72
2022-10-31T05:29:43.868Z,63.13
2022-10-31T05:32:15.900Z,61.38
2022-10-31T05:34:47.799Z,52.53
2022-10-31T05:37:19.741Z,60.75
2022-10-31T05:39:51.696Z,62.80
2022-10-31T05:42:23.654Z,61.97
2022-10-31T05:44:55.653Z,64.80
2022-10-31T05:47:27.564Z,66.63
2022-10-31T05:49:59.486Z,75.43
2022-10-31T05:52:31.394Z,72.35
2022-10-31T05:55:04.055Z,64.97
2022-10-31T05:57:35.959Z,68.40
2022-10-31T06:00:08.926Z,61.58
2022-10-31T06:02:40.927Z,66.07
2022-10-31T06:05:14.047Z,57.47
2022-10-31T06:07:45.992Z,62.15
2022-10-31T06:10:20.544Z,61.47
2022-10-31T06:12:52.644Z,38.53
2022-10-31T06:15:25.017Z,41.28
2022-10-31T06:18:03.183Z,42.35
2022-10-31T06:20:35.890Z,41.92
2022-10-31T06:23:07.841Z,41.67
2022-10-31T06:25:39.833Z,47.50
2022-10-31T06:28:11.759Z,41.63
2022-10-31T06:30:43.741Z,47.53
2022-10-31T06:33:15.620Z,42.83
2022-10-31T06:35:48.559Z,44.03
2022-10-31T06:38:20.436Z,41.97
2022-10-31T06:40:52.343Z,43.58
2022-10-31T06:43:24.392Z,42.53
2022-10-31T06:45:56.299Z,46.90
2022-10-31T06:48:28.226Z,36.03
2022-10-31T06:51:01.650Z,42.85
2022-10-31T06:53:33.619Z,38.10
2022-10-31T06:56:06.004Z,38.63
2022-10-31T06:58:38.037Z,38.22
2022-10-31T07:01:10.261Z,40.17
2022-10-31T07:03:42.277Z,42.05
2022-10-31T07:06:14.216Z,41.75
2022-10-31T07:08:46.293Z,47.40
2022-10-31T07:11:18.238Z,51.17
2022-10-31T07:13:50.138Z,45.58
2022-10-31T07:16:22.074Z,51.17
2022-10-31T07:18:54.077Z,46.90
2022-10-31T07:21:26.071Z,47.33
2022-10-31T07:23:58.028Z,51.20
2022-10-31T07:26:30.020Z,46.45
2022-10-31T07:29:01.966Z,49.30
2022-10-31T07:31:33.882Z,51.58
2022-10-31T07:34:05.782Z,42.03
2022-10-31T07:36:37.737Z,55.40
2022-10-31T07:39:09.720Z,53.30
2022-10-31T07:41:41.631Z,50.22
2022-10-31T07:44:13.559Z,54.88
2022-10-31T07:46:45.539Z,53.80
2022-10-31T07:49:17.509Z,53.92
2022-10-31T07:51:49.466Z,50.80
2022-10-31T07:54:21.422Z,56.33
2022-10-31T07:56:53.366Z,47.92
2022-10-31T07:59:26.795Z,53.53
2022-10-31T08:01:58.905Z,49.47
2022-10-31T08:04:31.061Z,56.10
2022-10-31T08:07:02.991Z,56.38
2022-10-31T08:09:35.152Z,48.15
2022-10-31T08:12:07.156Z,39.33
2022-10-31T08:14:39.206Z,39.92
2022-10-31T08:17:12.241Z,33.25
2022-10-31T08:19:44.160Z,30.90
2022-10-31T08:22:16.090Z,29.40
2022-10-31T08:24:48.057Z,29.45
2022-10-31T08:27:20.068Z,27.98
2022-10-31T08:29:52.001Z,30.00
2022-10-31T08:32:23.964Z,32.17
2022-10-31T08:34:55.936Z,30.00
2022-10-31T08:37:27.921Z,27.50
2022-10-31T08:39:59.844Z,22.25
2022-10-31T08:42:31.775Z,24.23
2022-10-31T08:45:04.058Z,26.35
2022-10-31T08:47:35.990Z,25.05
2022-10-31T08:50:08.318Z,29.50
2022-10-31T08:53:03.709Z,28.67
2022-10-31T08:55:32.327Z,28.85
2022-10-31T08:58:07.319Z,32.38
2022-10-31T09:00:39.809Z,28.98
2022-10-31T09:03:24.471Z,34.33
2022-10-31T09:06:00.872Z,26.15
2022-10-31T09:08:33.924Z,33.78
2022-10-31T09:11:07.579Z,33.17
2022-10-31T09:13:41.433Z,33.92
2022-10-31T09:16:13.597Z,32.88
2022-10-31T09:18:45.563Z,29.45
2022-10-31T09:21:17.472Z,31.63
2022-10-31T09:23:49.381Z,33.85
2022-10-31T09:26:22.095Z,26.70
2022-10-31T09:28:54.207Z,30.75
2022-10-31T09:31:26.127Z,32.80
2022-10-31T09:33:58.064Z,30.50
2022-10-31T09:36:30.147Z,31.52
2022-10-31T09:39:02.103Z,32.90
2022-10-31T09:42:07.357Z,31.05
2022-10-31T09:44:56.160Z,32.85
2022-10-31T09:48:03.552Z,29.30
2022-10-31T09:50:48.608Z,32.17
2022-10-31T09:53:43.789Z,31.15
2022-10-31T09:56:20.762Z,38.83
2022-10-31T09:59:01.699Z,32.15
2022-10-31T10:02:05.974Z,31.55
2022-10-31T10:04:49.590Z,32.60
2022-10-31T10:07:33.700Z,34.20
2022-10-31T10:10:19.398Z,30.60
2022-10-31T10:13:06.433Z,32.03
2022-10-31T10:16:02.978Z,25.48
2022-10-31T10:18:58.569Z,37.10
2022-10-31T10:22:10.705Z,27.67
2022-10-31T10:25:12.433Z,28.90
2022-10-31T10:28:03.279Z,32.47
2022-10-31T10:30:39.351Z,30.83
2022-10-31T10:33:21.065Z,30.17
2022-10-31T10:36:42.230Z,29.52
2022-10-31T10:39:34.332Z,31.67
2022-10-31T10:42:32.783Z,30.77
2022-10-31T10:45:38.610Z,36.85
2022-10-31T10:49:04.893Z,32.90
2022-10-31T10:55:31.081Z,36.15
2022-10-31T10:58:10.270Z,37.20
2022-10-31T11:00:48.702Z,36.10
2022-10-31T11:03:21.094Z,37.75
2022-10-31T11:05:57.812Z,40.22
2022-10-31T11:08:35.169Z,29.90
2022-10-31T11:11:31.486Z,34.17
2022-10-31T11:14:13.867Z,37.75
2022-10-31T11:16:55.924Z,35.22
2022-10-31T11:19:28.505Z,39.95
2022-10-31T11:22:17.609Z,37.15
2022-10-31T11:24:49.584Z,39.17
2022-10-31T11:27:24.542Z,44.42
2022-10-31T11:30:07.389Z,35.67
2022-10-31T11:32:54.160Z,35.65
2022-10-31T11:35:27.023Z,38.10
2022-10-31T11:38:03.581Z,40.03
2022-10-31T11:40:36.078Z,34.47
2022-10-31T11:43:18.573Z,39.88
2022-10-31T11:45:50.774Z,41.88
2022-10-31T11:48:25.770Z,38.22
2022-10-31T11:50:59.400Z,36.70
2022-10-31T11:53:35.276Z,37.45
2022-10-31T11:56:15.216Z,36.38
2022-10-31T11:59:03.803Z,48.80
2022-10-31T12:01:36.962Z,38.80
2022-10-31T12:04:14.750Z,34.67
2022-10-31T12:06:48.710Z,53.15
2022-10-31T12:09:26.797Z,47.63
2022-10-31T12:12:35.341Z,52.45
2022-10-31T12:15:34.553Z,54.75
2022-10-31T12:18:36.867Z,46.42
2022-10-31T12:21:43.241Z,43.92
2022-10-31T12:24:31.716Z,42.72
2022-10-31T12:27:34.261Z,45.65
2022-10-31T12:30:17.078Z,41.33
2022-10-31T12:33:09.996Z,42.13
2022-10-31T12:36:00.983Z,39.17
2022-10-31T12:39:08.294Z,35.25
2022-10-31T12:42:13.917Z,39.40
2022-10-31T12:45:20.459Z,41.15
2022-10-31T12:48:13.303Z,38.97
2022-10-31T12:51:06.849Z,41.53
2022-10-31T12:53:53.805Z,43.92
2022-10-31T12:56:41.780Z,43.85
2022-10-31T12:59:43.687Z,42.17
2022-10-31T13:02:34.815Z,36.83
2022-10-31T13:05:32.976Z,49.78
2022-10-31T13:08:12.057Z,48.95
2022-10-31T13:10:50.897Z,54.35
2022-10-31T13:13:32.221Z,54.53
2022-10-31T13:16:15.090Z,48.47
2022-10-31T13:19:00.135Z,68.85
2022-10-31T13:21:52.852Z,47.95
2022-10-31T13:24:41.579Z,51.83
2022-10-31T13:27:43.378Z,49.08
2022-10-31T13:30:29.114Z,50.45
2022-10-31T13:33:22.720Z,50.83
2022-10-31T13:36:17.590Z,58.47
2022-10-31T13:39:00.491Z,53.50
2022-10-31T13:42:33.321Z,55.25
2022-10-31T13:45:20.694Z,41.72
2022-10-31T13:48:07.501Z,43.10
2022-10-31T13:50:41.387Z,45.15
2022-10-31T13:53:19.251Z,47.45
2022-10-31T13:56:09.389Z,46.97
2022-10-31T13:58:58.995Z,45.70
2022-10-31T14:01:32.726Z,52.17
2022-10-31T14:04:22.155Z,39.38
2022-10-31T14:07:10.483Z,41.53
2022-10-31T14:10:00.197Z,41.67
2022-10-31T14:12:36.348Z,35.67
2022-10-31T14:15:15.766Z,42.53
2022-10-31T14:17:56.617Z,52.47
2022-10-31T14:20:47.048Z,45.65
2022-10-31T14:23:46.690Z,48.92
2022-10-31T14:26:32.169Z,44.60
2022-10-31T14:29:16.852Z,45.03
2022-10-31T14:32:14.403Z,47.20
2022-10-31T14:34:55.335Z,42.22
2022-10-31T14:37:54.044Z,46.80
2022-10-31T14:40:37.131Z,49.47
2022-10-31T14:43:35.806Z,44.10
2022-10-31T14:46:32.202Z,53.88
2022-10-31T14:49:56.766Z,45.97
2022-10-31T14:52:28.709Z,47.75
2022-10-31T14:55:01.870Z,42.95
2022-10-31T14:57:38.718Z,42.33
2022-10-31T15:00:24.598Z,45.15
2022-10-31T15:03:16.213Z,47.22
2022-10-31T15:05:57.121Z,40.25
2022-10-31T15:08:40.909Z,43.50
2022-10-31T15:11:26.430Z,44.90
2022-10-31T15:14:03.237Z,49.60
2022-10-31T15:16:41.208Z,47.05
2022-10-31T15:19:24.872Z,46.35
2022-10-31T15:21:58.587Z,47.03
2022-10-31T15:24:40.241Z,51.35
2022-10-31T15:27:18.275Z,41.92
2022-10-31T15:29:57.700Z,40.53
2022-10-31T15:32:30.691Z,45.27
2022-10-31T15:35:10.472Z,47.70
2022-10-31T15:37:42.555Z,57.70
2022-10-31T15:40:21.197Z,53.30
2022-10-31T15:43:01.547Z,53.50
2022-10-31T15:48:19.475Z,51.67
2022-10-31T15:50:58.602Z,53.90
2022-10-31T15:53:49.787Z,55.17
2022-10-31T15:56:26.114Z,54.63
2022-10-31T15:59:01.100Z,48.75
2022-10-31T16:01:34.662Z,56.45
2022-10-31T16:04:24.789Z,49.90
2022-10-31T16:07:21.725Z,51.88
2022-10-31T16:10:04.941Z,50.20
2022-10-31T16:12:43.020Z,43.58
2022-10-31T16:15:17.766Z,54.65
2022-10-31T16:17:52.336Z,53.83
2022-10-31T16:20:29.228Z,49.85
2022-10-31T16:23:02.088Z,44.92
2022-10-31T16:25:39.400Z,49.53
2022-10-31T16:28:24.595Z,47.72
2022-10-31T16:30:59.049Z,51.17
2022-10-31T16:33:38.586Z,52.20
2022-10-31T16:36:40.827Z,48.80
2022-10-31T16:39:14.577Z,42.20
2022-10-31T16:41:53.826Z,45.22
2022-10-31T16:44:27.431Z,52.53
2022-10-31T16:47:17.364Z,46.45
2022-10-31T16:49:50.812Z,42.25
2022-10-31T16:52:22.850Z,41.20
2022-10-31T16:54:55.663Z,49.97
2022-10-31T16:57:30.841Z,49.90
2022-10-31T17:00:03.009Z,47.97
2022-10-31T17:02:35.197Z,44.65
2022-10-31T17:05:10.817Z,52.63
2022-10-31T17:07:43.211Z,50.35
2022-10-31T17:10:16.219Z,42.80
2022-10-31T17:12:49.693Z,46.30
2022-10-31T17:15:27.426Z,50.25
2022-10-31T17:17:59.871Z,47.17
2022-10-31T17:20:32.153Z,44.58
2022-10-31T17:23:04.441Z,46.53
2022-10-31T17:25:36.876Z,45.85
2022-10-31T17:28:14.024Z,52.03
2022-10-31T17:30:46.393Z,53.08
2022-10-31T17:33:18.505Z,44.08
2022-10-31T17:35:50.666Z,43.58
2022-10-31T17:38:22.738Z,42.17
2022-10-31T17:40:54.778Z,35.28
2022-10-31T17:43:27.614Z,39.25
2022-10-31T17:46:01.535Z,34.38
2022-10-31T17:48:35.967Z,27.23
2022-10-31T17:51:07.900Z,34.03
2022-10-31T17:53:39.938Z,30.00
2022-10-31T17:56:12.614Z,31.65
2022-10-31T17:58:44.678Z,37.85
2022-10-31T18:01:19.112Z,37.53
2022-10-31T18:03:51.100Z,30.48
2022-10-31T18:06:23.059Z,38.10
2022-10-31T18:08:58.034Z,33.70
2022-10-31T18:11:29.955Z,36.58
2022-10-31T18:14:02.086Z,37.78
2022-10-31T18:16:34.164Z,33.13
2022-10-31T18:19:06.313Z,30.52
2022-10-31T18:21:38.204Z,27.10
2022-10-31T18:24:10.527Z,26.55
2022-10-31T18:26:43.865Z,26.65
2022-10-31T18:29:15.966Z,32.45
2022-10-31T18:31:52.913Z,35.45
2022-10-31T18:34:24.867Z,27.52
2022-10-31T18:36:56.880Z,26.15
2022-10-31T18:39:28.806Z,25.73
2022-10-31T18:42:00.856Z,26.25
2022-10-31T18:44:32.973Z,24.10
2022-10-31T18:47:05.171Z,33.17
2022-10-31T18:49:37.441Z,26.27
2022-10-31T18:52:09.501Z,24.33
2022-10-31T18:54:41.514Z,26.63
2022-10-31T18:57:13.494Z,25.10
2022-10-31T18:59:45.459Z,25.35
2022-10-31T19:02:18.037Z,32.05
2022-10-31T19:04:51.382Z,20.23
2022-10-31T19:07:24.114Z,23.52
2022-10-31T19:09:56.043Z,26.77
2022-10-31T19:12:28.055Z,23.83
2022-10-31T19:15:00.116Z,24.80
2022-10-31T19:17:32.618Z,24.33
2022-10-31T19:20:05.135Z,25.33
2022-10-31T19:22:37.611Z,25.02
2022-10-31T19:25:10.993Z,23.77
2022-10-31T19:27:43.315Z,24.00
2022-10-31T19:30:15.389Z,27.40
2022-10-31T19:32:47.920Z,25.83
2022-10-31T19:35:19.839Z,28.67
2022-10-31T19:37:51.734Z,27.70
2022-10-31T19:40:23.656Z,29.55
2022-10-31T19:42:55.573Z,29.65
2022-10-31T19:45:27.577Z,31.92
2022-10-31T19:48:00.024Z,28.17
2022-10-31T19:50:32.346Z,31.45
2022-10-31T19:53:07.597Z,28.27
2022-10-31T19:55:45.739Z,33.00
2022-10-31T19:58:18.027Z,34.95
2022-10-31T20:00:50.253Z,34.15
2022-10-31T20:03:22.969Z,40.55
2022-10-31T20:05:54.902Z,34.55
2022-10-31T20:08:28.171Z,42.00
2022-10-31T20:11:02.446Z,43.50
2022-10-31T20:13:34.578Z,39.08
2022-10-31T20:16:12.966Z,40.22
2022-10-31T20:18:47.098Z,38.92
2022-10-31T20:21:23.975Z,56.33
2022-10-31T20:24:02.071Z,47.63
2022-10-31T20:26:35.018Z,51.15
2022-10-31T20:29:08.013Z,60.47
2022-10-31T20:31:40.420Z,60.55
2022-10-31T20:34:12.840Z,56.55
2022-10-31T20:36:46.317Z,58.33
2022-10-31T20:39:18.314Z,55.00
2022-10-31T20:41:50.378Z,55.42
2022-10-31T20:44:22.318Z,58.78
2022-10-31T20:46:54.741Z,66.32
2022-10-31T20:49:26.735Z,63.08
2022-10-31T20:51:59.302Z,61.90
2022-10-31T20:54:31.412Z,61.42
2022-10-31T20:57:03.541Z,75.60
2022-10-31T20:59:35.487Z,71.38
2022-10-31T21:02:08.856Z,64.03
2022-10-31T21:04:41.328Z,67.28
2022-10-31T21:07:13.313Z,67.82
2022-10-31T21:09:45.372Z,67.07
2022-10-31T21:12:17.472Z,73.18
2022-10-31T21:14:49.369Z,67.43
2022-10-31T21:17:21.345Z,68.85
2022-10-31T21:19:53.303Z,63.03
2022-10-31T21:22:25.302Z,71.80
2022-10-31T21:24:57.235Z,61.85
2022-10-31T21:27:29.177Z,67.10
2022-10-31T21:30:01.577Z,77.25
2022-10-31T21:32:33.484Z,66.95
2022-10-31T21:35:05.937Z,73.47
2022-10-31T21:37:37.971Z,69.68
2022-10-31T21:40:10.489Z,77.07
2022-10-31T21:42:42.458Z,76.97
2022-10-31T21:45:14.621Z,82.25
2022-10-31T21:47:47.961Z,77.20
2022-10-31T21:50:19.859Z,81.57
2022-10-31T21:52:51.850Z,76.70
2022-10-31T21:55:23.780Z,90.45
2022-10-31T21:57:55.705Z,98.47
2022-10-31T22:00:27.603Z,82.43
2022-10-31T22:02:59.536Z,101.72
2022-10-31T22:05:31.432Z,86.38
2022-10-31T22:08:04.054Z,75.20
2022-10-31T22:10:36.124Z,92.32
2022-10-31T22:13:08.109Z,89.50
2022-10-31T22:15:40.048Z,90.22
2022-10-31T22:18:12.087Z,89.60
2022-10-31T22:20:45.105Z,96.65
2022-10-31T22:23:17.105Z,78.30
2022-10-31T22:25:49.048Z,86.93
2022-10-31T22:28:21.023Z,94.40
2022-10-31T22:30:52.949Z,85.40
2022-10-31T22:33:25.970Z,89.75
2022-10-31T22:36:06.077Z,89.22
2022-10-31T22:38:40.417Z,97.13
2022-10-31T22:41:19.541Z,87.43
2022-10-31T22:43:51.966Z,103.68
2022-10-31T22:46:29.786Z,94.53
2022-10-31T22:49:11.541Z,79.68
2022-10-31T22:51:44.152Z,99.07
2022-10-31T22:54:18.392Z,96.50
2022-10-31T22:56:50.294Z,92.65
2022-10-31T22:59:22.223Z,87.18
2022-10-31T23:01:54.629Z,100.30
2022-10-31T23:04:26.821Z,96.53
2022-10-31T23:06:58.746Z,105.55
2022-10-31T23:09:30.896Z,94.68
2022-10-31T23:12:22.798Z,91.72
2022-10-31T23:14:54.758Z,112.65
2022-10-31T23:17:26.714Z,119.70
2022-10-31T23:19:58.646Z,108.78
2022-10-31T23:22:30.586Z,108.57
2022-10-31T23:25:02.857Z,138.30
2022-10-31T23:27:34.818Z,105.13
2022-10-31T23:30:07.202Z,106.90
2022-10-31T23:32:39.082Z,107.18
2022-10-31T23:35:11.412Z,121.22
2022-10-31T23:37:43.370Z,115.82
2022-10-31T23:40:15.556Z,110.05
2022-10-31T23:42:47.593Z,120.70
2022-10-31T23:45:19.520Z,113.55
2022-10-31T23:47:51.474Z,124.25
2022-10-31T23:50:23.387Z,114.93
2022-10-31T23:52:55.286Z,106.07
2022-10-31T23:55:27.264Z,125.28
2022-10-31T23:57:59.467Z,105.78
